Time;durP1;ratioP1;P1;durP2;ratioP2;P2;SDS_P1;SDS_P2;PMS_P1;PMS_P2;Temp;Humidity;BMP_temperature;BMP_pressure;BME280_temperature;BME280_humidity;BME280_pressure;Samples;Min_cycle;Max_cycle;Signal;HPM_P1;HPM_P2
2023/10/26 00:00:39;;;;;;;;;;;;;;;-140.72;100.00;61148.03;5066869;28;19920;-70
2023/10/26 00:03:04;;;;;;;;;;;;;;;-140.72;100.00;61139.91;5065522;28;19920;-70
2023/10/26 00:05:30;;;;;;;;;;;;;;;-140.72;100.00;61154.16;5066240;28;19921;-70
2023/10/26 00:07:55;;;;;;;;;;;;;;;-140.72;100.00;61135.84;5065780;28;19929;-70
2023/10/26 00:10:20;;;;;;;;;;;;;;;-140.72;100.00;61135.84;5065509;28;20393;-71
2023/10/26 00:12:45;;;;;;;;;;;;;;;-140.72;100.00;61152.13;5065247;28;20325;-70
2023/10/26 00:15:11;;;;;;;;;;;;;;;-140.72;100.00;61146.00;5063324;28;19932;-71
2023/10/26 00:17:36;;;;;;;;;;;;;;;-140.72;100.00;61119.56;5065751;28;19974;-71
2023/10/26 00:20:02;;;;;;;;;;;;;;;-140.72;100.00;61085.00;5065018;28;19963;-70
2023/10/26 00:22:28;;;;;;;;;;;;;;;-140.72;100.00;61105.34;5060547;28;19921;-70
2023/10/26 00:24:53;;;;;;;;;;;;;;;-140.72;100.00;61129.75;5068668;28;19928;-70
2023/10/26 00:27:18;;;;;;;;;;;;;;;-140.72;100.00;61101.28;5074100;28;20005;-70
2023/10/26 00:29:44;;;;;;;;;;;;;;;-140.72;100.00;61099.25;5074032;28;19987;-70
2023/10/26 00:32:09;;;;;;;;;;;;;;;-140.72;100.00;61087.03;5075371;28;20378;-70
2023/10/26 00:34:35;;;;;;;;;;;;;;;-140.72;100.00;61099.25;5073132;28;19927;-70
2023/10/26 00:37:00;;;;;;;;;;;;;;;-140.72;100.00;61097.22;5071689;28;19963;-70
2023/10/26 00:39:26;;;;;;;;;;;;;;;-140.72;100.00;61068.75;5068440;28;19951;-70
2023/10/26 00:41:52;;;;;;;;;;;;;;;-140.72;100.00;61044.34;5073308;28;19931;-69
2023/10/26 00:44:17;;;;;;;;;;;;;;;-140.72;100.00;61072.81;5073959;28;20023;-69
2023/10/26 00:46:43;;;;;;;;;;;;;;;-140.72;100.00;61054.50;5069176;28;19986;-69
2023/10/26 00:49:10;;;;;;;;;;;;;;;-140.72;100.00;61064.66;5070750;28;21953;-70
2023/10/26 00:51:35;;;;;;;;;;;;;;;-140.72;100.00;61056.53;5073134;28;19920;-69
2023/10/26 00:54:02;;;;;;;;;;;;;;;-140.72;100.00;61070.78;5073257;28;20026;-69
2023/10/26 00:56:27;;;;;;;;;;;;;;;-140.72;100.00;61093.13;5072378;28;19928;-69
2023/10/26 00:59:09;;;;;;;;;;;;;;;-140.72;100.00;61060.59;5071584;28;19963;-70
2023/10/26 01:01:34;;;;;;;;;;;;;;;-140.72;100.00;61054.50;5069284;28;19920;-69
2023/10/26 01:04:00;;;;;;;;;;;;;;;-140.72;100.00;61080.94;5072720;28;19921;-69
2023/10/26 01:06:25;;;;;;;;;;;;;;;-140.72;100.00;61048.41;5075783;28;19923;-70
2023/10/26 01:08:50;;;;;;;;;;;;;;;-140.72;100.00;61021.97;5070479;28;19920;-72
2023/10/26 01:11:30;;;;;;;;;;;;;;;-140.72;100.00;61019.94;5069597;28;20345;-69
2023/10/26 01:13:55;;;;;;;;;;;;;;;-140.72;100.00;61040.28;5073457;28;19921;-69
2023/10/26 01:16:23;;;;;;;;;;;;;;;-140.72;100.00;61015.88;5073421;28;19936;-69
2023/10/26 01:18:48;;;;;;;;;;;;;;;-140.72;100.00;60995.53;5074450;28;19988;-69
2023/10/26 01:21:13;;;;;;;;;;;;;;;-140.72;100.00;60999.59;5079717;28;19931;-69
2023/10/26 01:23:39;;;;;;;;;;;;;;;-140.72;100.00;61005.69;5066076;28;19920;-69
2023/10/26 01:26:04;;;;;;;;;;;;;;;-140.72;100.00;61028.06;5073405;28;20011;-69
2023/10/26 01:28:29;;;;;;;;;;;;;;;-140.72;100.00;61074.84;5073758;28;20289;-69
2023/10/26 01:30:59;;;;;;;;;;;;;;;-140.72;100.00;61015.88;5068770;28;19924;-69
2023/10/26 01:33:24;;;;;;;;;;;;;;;-140.72;100.00;61060.59;5065180;28;19962;-69
2023/10/26 01:35:49;;;;;;;;;;;;;;;-140.72;100.00;61048.41;5067872;28;19920;-69
2023/10/26 01:38:15;;;;;;;;;;;;;;;-140.72;100.00;61040.28;5064524;28;20233;-69
2023/10/26 01:40:40;;;;;;;;;;;;;;;-140.72;100.00;61060.59;5070727;28;19920;-69
2023/10/26 01:43:05;;;;;;;;;;;;;;;-140.72;100.00;61046.38;5072775;28;19924;-69
2023/10/26 01:45:30;;;;;;;;;;;;;;;-140.72;100.00;61036.19;5069999;28;20349;-69
2023/10/26 01:47:58;;;;;;;;;;;;;;;-140.72;100.00;61007.72;5071447;28;20018;-69
2023/10/26 01:50:23;;;;;;;;;;;;;;;-140.72;100.00;61062.63;5067571;28;20016;-69
2023/10/26 01:52:48;;;;;;;;;;;;;;;-140.72;100.00;61021.97;5069133;28;20015;-69
2023/10/26 01:55:14;;;;;;;;;;;;;;;-140.72;100.00;61032.13;5072813;28;19938;-69
2023/10/26 01:57:39;;;;;;;;;;;;;;;-140.72;100.00;60999.59;5072866;28;19921;-69
2023/10/26 02:00:05;;;;;;;;;;;;;;;-140.72;100.00;61024.00;5071711;28;20374;-71
2023/10/26 02:02:30;;;;;;;;;;;;;;;-140.72;100.00;61003.66;5072382;28;19935;-69
2023/10/26 02:04:55;;;;;;;;;;;;;;;-140.72;100.00;61034.16;5067291;28;19932;-69
2023/10/26 02:07:20;;;;;;;;;;;;;;;-140.72;100.00;61042.31;5070165;28;19931;-69
2023/10/26 02:09:46;;;;;;;;;;;;;;;-140.72;100.00;61013.84;5068756;28;19939;-69
2023/10/26 02:12:11;;;;;;;;;;;;;;;-140.72;100.00;61017.91;5067690;28;19927;-69
2023/10/26 02:14:36;;;;;;;;;;;;;;;-140.72;100.00;61054.50;5070661;28;19924;-69
2023/10/26 02:17:02;;;;;;;;;;;;;;;-140.72;100.00;61036.19;5068483;28;20244;-69
2023/10/26 02:19:27;;;;;;;;;;;;;;;-140.72;100.00;61072.81;5065739;28;19920;-69
2023/10/26 02:21:52;;;;;;;;;;;;;;;-140.72;100.00;61032.13;5067331;28;19943;-69
2023/10/26 02:24:18;;;;;;;;;;;;;;;-140.72;100.00;61064.66;5063701;28;19939;-69
2023/10/26 02:26:43;;;;;;;;;;;;;;;-140.72;100.00;61042.31;5066926;28;19978;-69
2023/10/26 02:29:09;;;;;;;;;;;;;;;-140.72;100.00;61109.41;5062910;28;19979;-69
2023/10/26 02:31:34;;;;;;;;;;;;;;;-140.72;100.00;61101.28;5067137;28;19976;-69
2023/10/26 02:34:17;;;;;;;;;;;;;;;-140.72;100.00;61091.09;5069773;28;20236;-69
2023/10/26 02:36:42;;;;;;;;;;;;;;;-140.72;100.00;61129.75;5068495;28;19994;-69
2023/10/26 02:39:07;;;;;;;;;;;;;;;-140.72;100.00;61121.59;5072687;28;20015;-69
2023/10/26 02:41:33;;;;;;;;;;;;;;;-140.72;100.00;61085.00;5068687;28;20032;-70
2023/10/26 02:43:59;;;;;;;;;;;;;;;-140.72;100.00;61125.69;5069058;28;20274;-69
2023/10/26 02:46:24;;;;;;;;;;;;;;;-140.72;100.00;61113.47;5071398;28;19927;-69
2023/10/26 02:49:00;;;;;;;;;;;;;;;-140.72;100.00;61105.34;5069712;28;19927;-69
2023/10/26 02:51:25;;;;;;;;;;;;;;;-140.72;100.00;61103.31;5070936;28;20007;-69
2023/10/26 02:53:50;;;;;;;;;;;;;;;-140.72;100.00;61156.19;5066941;28;20389;-69
2023/10/26 02:56:16;;;;;;;;;;;;;;;-140.72;100.00;61139.91;5071978;28;19942;-69
2023/10/26 02:58:41;;;;;;;;;;;;;;;-140.72;100.00;61170.41;5071972;28;20363;-69
2023/10/26 03:01:06;;;;;;;;;;;;;;;-140.72;100.00;61129.75;5063439;28;20328;-69
2023/10/26 03:03:31;;;;;;;;;;;;;;;-140.72;100.00;61154.16;5075450;28;19920;-69
2023/10/26 03:06:00;;;;;;;;;;;;;;;-140.72;100.00;61158.22;5074739;28;19920;-69
2023/10/26 03:08:25;;;;;;;;;;;;;;;-140.72;100.00;61190.75;5079992;28;19924;-69
2023/10/26 03:10:50;;;;;;;;;;;;;;;-140.72;100.00;61192.78;5076398;28;19921;-69
2023/10/26 03:13:16;;;;;;;;;;;;;;;-140.72;100.00;61223.28;5073665;28;20401;-69
2023/10/26 03:15:41;;;;;;;;;;;;;;;-140.72;100.00;61239.56;5070467;28;19921;-69
2023/10/26 03:18:06;;;;;;;;;;;;;;;-140.72;100.00;61231.44;5068271;28;19924;-69
2023/10/26 03:20:32;;;;;;;;;;;;;;;-140.72;100.00;61227.34;5069338;28;19920;-69
2023/10/26 03:22:57;;;;;;;;;;;;;;;-140.72;100.00;61245.66;5066294;28;20012;-69
2023/10/26 03:25:22;;;;;;;;;;;;;;;-140.72;100.00;61249.72;5070722;28;19920;-69
2023/10/26 03:27:48;;;;;;;;;;;;;;;-140.72;100.00;61266.00;5073352;28;20359;-70
2023/10/26 03:30:13;;;;;;;;;;;;;;;-140.72;100.00;61243.63;5070778;28;19920;-69
2023/10/26 03:32:38;;;;;;;;;;;;;;;-140.72;100.00;61243.63;5070189;28;19920;-69
2023/10/26 03:35:04;;;;;;;;;;;;;;;-140.72;100.00;61229.41;5071058;28;20061;-70
2023/10/26 03:37:29;;;;;;;;;;;;;;;-140.72;100.00;61237.53;5070019;28;19939;-70
2023/10/26 03:39:55;;;;;;;;;;;;;;;-140.72;100.00;61207.03;5065510;28;19927;-69
2023/10/26 03:42:20;;;;;;;;;;;;;;;-140.72;100.00;61235.50;5068966;28;19928;-69
2023/10/26 03:44:45;;;;;;;;;;;;;;;-140.72;100.00;61229.41;5070607;28;19931;-69
2023/10/26 03:47:10;;;;;;;;;;;;;;;-140.72;100.00;61237.53;5067876;28;19992;-69
2023/10/26 03:49:36;;;;;;;;;;;;;;;-140.72;100.00;61231.44;5068510;28;19921;-69
2023/10/26 03:52:01;;;;;;;;;;;;;;;-140.72;100.00;61225.31;5064973;28;19921;-69
2023/10/26 03:54:27;;;;;;;;;;;;;;;-140.72;100.00;61231.44;5063851;28;19977;-69
2023/10/26 03:56:52;;;;;;;;;;;;;;;-140.72;100.00;61223.28;5067787;28;20251;-69
2023/10/26 03:59:17;;;;;;;;;;;;;;;-140.72;100.00;61211.09;5071432;28;19920;-69
2023/10/26 04:01:43;;;;;;;;;;;;;;;-140.72;100.00;61263.97;5068959;28;19920;-69
2023/10/26 04:04:08;;;;;;;;;;;;;;;-140.72;100.00;61231.44;5073656;28;19921;-69
2023/10/26 04:06:33;;;;;;;;;;;;;;;-140.72;100.00;61213.13;5074127;28;20323;-69
2023/10/26 04:08:59;;;;;;;;;;;;;;;-140.72;100.00;61225.31;5080821;28;19920;-69
2023/10/26 04:11:24;;;;;;;;;;;;;;;-140.72;100.00;61239.56;5073695;28;19946;-68
2023/10/26 04:13:50;;;;;;;;;;;;;;;-140.72;100.00;61182.63;5073794;28;20239;-68
2023/10/26 04:16:15;;;;;;;;;;;;;;;-140.72;100.00;61235.50;5069738;28;19968;-68
2023/10/26 04:18:40;;;;;;;;;;;;;;;-140.72;100.00;61219.22;5069258;28;19959;-70
2023/10/26 04:21:05;;;;;;;;;;;;;;;-140.72;100.00;61198.88;5066993;28;19924;-71
2023/10/26 04:23:31;;;;;;;;;;;;;;;-140.72;100.00;61215.16;5067278;28;19921;-70
2023/10/26 04:25:56;;;;;;;;;;;;;;;-140.72;100.00;61168.38;5067615;28;19920;-75
2023/10/26 04:28:21;;;;;;;;;;;;;;;-140.72;100.00;61184.66;5070477;28;19920;-70
2023/10/26 04:30:47;;;;;;;;;;;;;;;-140.72;100.00;61158.22;5072042;28;19928;-70
2023/10/26 04:33:12;;;;;;;;;;;;;;;-140.72;100.00;61184.66;5065499;28;19924;-71
2023/10/26 04:35:41;;;;;;;;;;;;;;;-140.72;100.00;61182.63;5069035;28;20015;-70
2023/10/26 04:38:08;;;;;;;;;;;;;;;-140.72;100.00;61133.81;5067447;28;20088;-70
2023/10/26 04:40:33;;;;;;;;;;;;;;;-140.72;100.00;61152.13;5070726;28;19931;-70
2023/10/26 04:42:58;;;;;;;;;;;;;;;-140.72;100.00;61150.09;5071734;28;19920;-70
2023/10/26 04:45:24;;;;;;;;;;;;;;;-140.72;100.00;61150.09;5072167;28;19975;-69
2023/10/26 04:47:49;;;;;;;;;;;;;;;-140.72;100.00;61121.59;5068500;28;19921;-70
2023/10/26 04:50:14;;;;;;;;;;;;;;;-140.72;100.00;61111.44;5073518;28;19920;-70
2023/10/26 04:52:39;;;;;;;;;;;;;;;-140.72;100.00;61115.50;5081152;28;19981;-70
2023/10/26 04:55:05;;;;;;;;;;;;;;;-140.72;100.00;61141.94;5068276;28;19982;-69
2023/10/26 04:57:30;;;;;;;;;;;;;;;-140.72;100.00;61101.28;5072364;28;20046;-70
2023/10/26 04:59:55;;;;;;;;;;;;;;;-140.72;100.00;61097.22;5068128;28;20339;-70
2023/10/26 05:02:20;;;;;;;;;;;;;;;-140.72;100.00;61089.06;5069152;28;20289;-70
2023/10/26 05:04:46;;;;;;;;;;;;;;;-140.72;100.00;61089.06;5069305;28;19920;-71
2023/10/26 05:07:11;;;;;;;;;;;;;;;-140.72;100.00;61080.94;5069835;28;19927;-69
2023/10/26 05:09:36;;;;;;;;;;;;;;;-140.72;100.00;61080.94;5069239;28;19921;-68
2023/10/26 05:12:02;;;;;;;;;;;;;;;-140.72;100.00;61052.47;5073335;28;20327;-69
2023/10/26 05:14:27;;;;;;;;;;;;;;;-140.72;100.00;61026.03;5070681;28;20407;-68
2023/10/26 05:16:52;;;;;;;;;;;;;;;-140.72;100.00;61021.97;5073410;28;20465;-71
2023/10/26 05:19:17;;;;;;;;;;;;;;;-140.72;100.00;61030.09;5066692;28;19976;-71
2023/10/26 05:21:42;;;;;;;;;;;;;;;-140.72;100.00;61011.81;5071448;28;19920;-71
2023/10/26 05:24:08;;;;;;;;;;;;;;;-140.72;100.00;61030.09;5069473;28;19960;-71
2023/10/26 05:26:33;;;;;;;;;;;;;;;-140.72;100.00;61044.34;5069759;28;20027;-71
2023/10/26 05:28:58;;;;;;;;;;;;;;;-140.72;100.00;61078.91;5067815;28;19928;-68
2023/10/26 05:31:23;;;;;;;;;;;;;;;-140.72;100.00;61040.28;5065693;28;19986;-71
2023/10/26 05:33:48;;;;;;;;;;;;;;;-140.72;100.00;61080.94;5077572;28;20393;-71
2023/10/26 05:36:15;;;;;;;;;;;;;;;-140.72;100.00;61111.44;5067848;28;19921;-70
2023/10/26 05:38:40;;;;;;;;;;;;;;;-140.72;100.00;61133.81;5071938;28;20471;-71
2023/10/26 05:41:05;;;;;;;;;;;;;;;-140.72;100.00;61109.41;5068179;28;19927;-71
2023/10/26 05:43:31;;;;;;;;;;;;;;;-140.72;100.00;61131.78;5072757;28;20012;-71
2023/10/26 05:46:00;;;;;;;;;;;;;;;-140.72;100.00;61162.28;5065568;28;20014;-71
2023/10/26 05:48:26;;;;;;;;;;;;;;;-140.72;100.00;61162.28;5072521;28;20303;-71
2023/10/26 05:50:51;;;;;;;;;;;;;;;-140.72;100.00;61186.69;5070830;28;19927;-71
2023/10/26 05:53:16;;;;;;;;;;;;;;;-140.72;100.00;61188.72;5067346;28;19920;-71
2023/10/26 05:55:41;;;;;;;;;;;;;;;-140.72;100.00;61194.81;5065972;28;20008;-71
2023/10/26 05:58:09;;;;;;;;;;;;;;;-140.72;100.00;61215.16;5068745;28;19931;-70
2023/10/26 06:00:34;;;;;;;;;;;;;;;-140.72;100.00;61219.22;5069463;28;19959;-71
2023/10/26 06:02:59;;;;;;;;;;;;;;;-140.72;100.00;61227.34;5079494;28;19916;-71
2023/10/26 06:05:24;;;;;;;;;;;;;;;-140.72;100.00;61268.03;5077063;28;19924;-72
2023/10/26 06:07:50;;;;;;;;;;;;;;;-140.72;100.00;61286.34;5074136;28;19921;-72
2023/10/26 06:10:15;;;;;;;;;;;;;;;-140.72;100.00;61308.72;5064543;28;20015;-73
2023/10/26 06:12:40;;;;;;;;;;;;;;;-140.72;100.00;61314.81;5067883;28;20046;-71
2023/10/26 06:15:06;;;;;;;;;;;;;;;-140.72;100.00;61337.19;5068917;28;19971;-73
2023/10/26 06:17:31;;;;;;;;;;;;;;;-140.72;100.00;61371.75;5072156;28;19967;-70
2023/10/26 06:19:56;;;;;;;;;;;;;;;-140.72;100.00;61434.78;5073810;28;19916;-70
2023/10/26 06:22:22;;;;;;;;;;;;;;;-140.72;100.00;61420.56;5092109;28;19969;-71
2023/10/26 06:24:47;;;;;;;;;;;;;;;-140.72;100.00;61477.50;5072984;28;19916;-71
2023/10/26 06:27:12;;;;;;;;;;;;;;;-140.72;100.00;61485.63;5074044;28;19983;-71
2023/10/26 06:29:37;;;;;;;;;;;;;;;-140.72;100.00;61495.81;5067462;28;19921;-71
2023/10/26 06:32:03;;;;;;;;;;;;;;;-140.72;100.00;61542.59;5068989;28;19924;-71
2023/10/26 06:34:29;;;;;;;;;;;;;;;-140.72;100.00;61579.19;5076364;28;20345;-70
2023/10/26 06:36:54;;;;;;;;;;;;;;;-140.72;100.00;61569.03;5090685;28;19916;-71
2023/10/26 06:39:19;;;;;;;;;;;;;;;-140.72;100.00;61560.88;5065407;28;20403;-71
2023/10/26 06:41:44;;;;;;;;;;;;;;;-140.72;100.00;61613.78;5075167;28;19998;-71
2023/10/26 06:44:09;;;;;;;;;;;;;;;-140.72;100.00;61632.06;5071350;28;20015;-71
2023/10/26 06:46:35;;;;;;;;;;;;;;;-140.72;100.00;61638.19;5078434;28;19926;-70
2023/10/26 06:49:00;;;;;;;;;;;;;;;-140.72;100.00;61658.50;5073270;28;20018;-71
2023/10/26 06:51:25;;;;;;;;;;;;;;;-140.72;100.00;61654.44;5080690;28;19924;-70
2023/10/26 06:53:50;;;;;;;;;;;;;;;-140.72;100.00;61634.09;5073653;28;20020;-70
2023/10/26 06:56:16;;;;;;;;;;;;;;;-140.72;100.00;61666.66;5072713;28;19934;-70
2023/10/26 06:58:43;;;;;;;;;;;;;;;-140.72;100.00;61707.31;5068999;28;20294;-71
2023/10/26 07:01:08;;;;;;;;;;;;;;;-140.72;100.00;61687.00;5079291;28;19916;-71
2023/10/26 07:03:33;;;;;;;;;;;;;;;-140.72;100.00;61723.59;5070222;28;19935;-71
2023/10/26 07:06:02;;;;;;;;;;;;;;;-140.72;100.00;61776.47;5077301;28;19924;-71
2023/10/26 07:08:27;;;;;;;;;;;;;;;-140.72;100.00;61764.28;5074025;28;19932;-71
2023/10/26 07:10:54;;;;;;;;;;;;;;;-140.72;100.00;61788.69;5082383;28;19920;-71
2023/10/26 07:13:19;;;;;;;;;;;;;;;-140.72;100.00;61762.25;5083031;28;19917;-71
2023/10/26 07:15:44;;;;;;;;;;;;;;;-140.72;100.00;61756.13;5081235;28;19920;-70
2023/10/26 07:18:10;;;;;;;;;;;;;;;-140.72;100.00;61756.13;5067030;28;19924;-71
2023/10/26 07:20:36;;;;;;;;;;;;;;;-140.72;100.00;61725.63;5076349;28;19978;-70
2023/10/26 07:23:02;;;;;;;;;;;;;;;-140.72;100.00;61760.22;5079628;28;19978;-70
2023/10/26 07:25:27;;;;;;;;;;;;;;;-140.72;100.00;61743.94;5072283;28;20351;-71
2023/10/26 07:27:52;;;;;;;;;;;;;;;-140.72;100.00;61727.66;5076230;28;20409;-71
2023/10/26 07:30:18;;;;;;;;;;;;;;;-140.72;100.00;61752.06;5076486;28;19920;-71
2023/10/26 07:32:43;;;;;;;;;;;;;;;-140.72;100.00;61778.50;5075154;28;19925;-71
2023/10/26 07:35:08;;;;;;;;;;;;;;;-140.72;100.00;61804.94;5070004;28;19962;-71
2023/10/26 07:37:33;;;;;;;;;;;;;;;-140.72;100.00;61782.59;5085675;28;19917;-71
2023/10/26 07:39:58;;;;;;;;;;;;;;;-140.72;100.00;61829.38;5078744;28;20389;-71
2023/10/26 07:42:24;;;;;;;;;;;;;;;-140.72;100.00;61819.19;5081632;28;19920;-71
2023/10/26 07:44:51;;;;;;;;;;;;;;;-140.72;100.00;61778.50;5075115;28;19946;-71
2023/10/26 07:47:17;;;;;;;;;;;;;;;-140.72;100.00;61817.16;5082811;28;19952;-71
2023/10/26 07:49:42;;;;;;;;;;;;;;;-140.72;100.00;61821.22;5074731;28;20323;-71
2023/10/26 07:52:07;;;;;;;;;;;;;;;-140.72;100.00;61798.84;5075833;28;20628;-71
2023/10/26 07:54:32;;;;;;;;;;;;;;;-140.72;100.00;61780.53;5077322;28;19916;-71
2023/10/26 07:56:57;;;;;;;;;;;;;;;-140.72;100.00;61772.41;5086214;28;19927;-71
2023/10/26 07:59:23;;;;;;;;;;;;;;;-140.72;100.00;61782.59;5074234;28;20436;-71
2023/10/26 08:01:48;;;;;;;;;;;;;;;-140.72;100.00;61760.22;5072974;28;19924;-71
2023/10/26 08:04:13;;;;;;;;;;;;;;;-140.72;100.00;61766.31;5074202;28;19923;-71
2023/10/26 08:06:39;;;;;;;;;;;;;;;-140.72;100.00;61705.28;5071311;28;19920;-71
2023/10/26 08:09:05;;;;;;;;;;;;;;;-140.72;100.00;61674.78;5074019;28;19920;-71
2023/10/26 08:11:30;;;;;;;;;;;;;;;-140.72;100.00;61682.91;5073752;28;19928;-71
2023/10/26 08:13:55;;;;;;;;;;;;;;;-140.72;100.00;61670.72;5074076;28;20019;-71
2023/10/26 08:16:20;;;;;;;;;;;;;;;-140.72;100.00;61654.44;5077118;28;20040;-71
2023/10/26 08:18:46;;;;;;;;;;;;;;;-140.72;100.00;61646.31;5073172;28;19917;-71
2023/10/26 08:21:11;;;;;;;;;;;;;;;-140.72;100.00;61611.72;5075106;28;20023;-71
2023/10/26 08:23:36;;;;;;;;;;;;;;;-140.72;100.00;61605.63;5078929;28;19920;-71
2023/10/26 08:26:06;;;;;;;;;;;;;;;-140.72;100.00;61571.06;5070725;28;19921;-71
2023/10/26 08:28:31;;;;;;;;;;;;;;;-140.72;100.00;61593.44;5074608;28;19917;-71
2023/10/26 08:30:56;;;;;;;;;;;;;;;-140.72;100.00;61581.22;5075996;28;19968;-71
2023/10/26 08:33:22;;;;;;;;;;;;;;;-140.72;100.00;61560.88;5073638;28;19923;-71
2023/10/26 08:35:53;;;;;;;;;;;;;;;-140.72;100.00;61536.47;5073981;28;19920;-71
2023/10/26 08:38:18;;;;;;;;;;;;;;;-140.72;100.00;61471.41;5063429;28;19917;-71
2023/10/26 08:40:51;;;;;;;;;;;;;;;-140.72;100.00;61499.88;5073804;28;19923;-71
2023/10/26 08:43:16;;;;;;;;;;;;;;;-140.72;100.00;61426.66;5060943;28;19924;-71
2023/10/26 08:45:42;;;;;;;;;;;;;;;-140.72;100.00;61434.78;5072707;28;20438;-71
2023/10/26 08:48:08;;;;;;;;;;;;;;;-140.72;100.00;61377.84;5063287;28;19964;-71
2023/10/26 08:50:33;;;;;;;;;;;;;;;-140.72;100.00;61322.94;5074382;28;19921;-71
2023/10/26 08:52:59;;;;;;;;;;;;;;;-140.72;100.00;61268.03;5072135;28;19917;-71
2023/10/26 08:55:25;;;;;;;;;;;;;;;-140.72;100.00;61168.38;5072015;28;19921;-71
2023/10/26 08:57:54;;;;;;;;;;;;;;;-140.72;100.00;61196.84;5063293;28;19916;-72
2023/10/26 09:00:20;;;;;;;;;;;;;;;-140.72;100.00;61162.28;5071279;28;20019;-71
2023/10/26 09:02:45;;;;;;;;;;;;;;;-140.72;100.00;61125.69;5072508;28;20019;-71
2023/10/26 09:05:11;;;;;;;;;;;;;;;-140.72;100.00;61046.38;5073807;28;19923;-71
2023/10/26 09:07:36;;;;;;;;;;;;;;;-140.72;100.00;61032.13;5075945;28;20349;-70
2023/10/26 09:10:02;;;;;;;;;;;;;;;-140.72;100.00;60965.03;5078100;28;19956;-71
2023/10/26 09:12:27;;;;;;;;;;;;;;;-140.72;100.00;60843.03;5069321;28;20276;-71
2023/10/26 09:15:00;;;;;;;;;;;;;;;-140.72;100.00;60790.16;5070361;28;20448;-71
2023/10/26 09:17:26;;;;;;;;;;;;;;;-140.72;100.00;60727.13;5073073;28;19993;-71
2023/10/26 09:19:51;;;;;;;;;;;;;;;-140.72;100.00;60588.84;5073364;28;19924;-71
2023/10/26 09:22:16;;;;;;;;;;;;;;;-140.72;100.00;60544.13;5073338;28;20446;-69
2023/10/26 09:24:41;;;;;;;;;;;;;;;-140.72;100.00;60448.56;5075345;28;19916;-71
2023/10/26 09:27:16;;;;;;;;;;;;;;;-140.72;100.00;60387.56;5073531;28;19928;-72
2023/10/26 09:29:42;;;;;;;;;;;;;;;-140.72;100.00;60249.28;5072307;28;19924;-71
2023/10/26 09:32:07;;;;;;;;;;;;;;;-140.72;100.00;60080.56;5072113;28;19928;-71
2023/10/26 09:34:43;;;;;;;;;;;;;;;-140.72;100.00;59978.91;5071239;28;19956;-71
2023/10/26 09:37:09;;;;;;;;;;;;;;;-140.72;100.00;59887.41;5073535;28;19923;-71
2023/10/26 09:39:35;;;;;;;;;;;;;;;-140.72;100.00;59665.81;5073678;28;19924;-70
2023/10/26 09:42:01;;;;;;;;;;;;;;;-140.72;100.00;59552.00;5072809;28;19920;-71
2023/10/26 09:44:27;;;;;;;;;;;;;;;-140.72;100.00;59421.91;5072312;28;19996;-71
2023/10/26 09:46:53;;;;;;;;;;;;;;;-140.72;100.00;59334.50;5072917;28;19920;-71
2023/10/26 09:49:19;;;;;;;;;;;;;;;-140.72;100.00;59249.13;5072162;28;20333;-71
2023/10/26 09:51:45;;;;;;;;;;;;;;;-140.72;100.00;59104.81;5073208;28;20225;-72
2023/10/26 09:54:13;;;;;;;;;;;;;;;-140.72;100.00;58970.66;5067888;28;19920;-71
2023/10/26 09:56:41;;;;;;;;;;;;;;;-140.72;100.00;58848.72;5073122;28;19916;-71
2023/10/26 09:59:06;;;;;;;;;;;;;;;-140.72;100.00;58694.25;5072437;28;19960;-71
2023/10/26 10:01:33;;;;;;;;;;;;;;;-140.72;100.00;58592.63;5071584;28;19968;-70
2023/10/26 10:03:59;;;;;;;;;;;;;;;-140.72;100.00;58430.06;5072874;28;20073;-71
2023/10/26 10:06:43;;;;;;;;;;;;;;;-140.72;100.00;58363.00;5071835;28;20041;-71
2023/10/26 10:09:10;;;;;;;;;;;;;;;-140.72;100.00;58287.81;5078159;28;19921;-71
2023/10/26 10:11:35;;;;;;;;;;;;;;;-140.72;100.00;58285.78;5071956;28;20409;-71
2023/10/26 10:14:01;;;;;;;;;;;;;;;-140.72;100.00;58200.41;5075600;28;19916;-71
2023/10/26 10:16:35;;;;;;;;;;;;;;;-140.72;100.00;58098.81;5072645;28;20032;-70
2023/10/26 10:19:15;;;;;;;;;;;;;;;-140.72;100.00;58064.28;5072754;28;19916;-70
2023/10/26 10:21:40;;;;;;;;;;;;;;;-140.72;100.00;58212.63;5069332;28;19924;-70
2023/10/26 10:24:06;;;;;;;;;;;;;;;-140.72;100.00;58230.91;5072314;28;19916;-70
2023/10/26 10:26:51;;;;;;;;;;;;;;;-140.72;100.00;58234.97;5072692;28;20019;-70
2023/10/26 10:29:18;;;;;;;;;;;;;;;-140.72;100.00;58230.91;5072224;28;19923;-70
2023/10/26 10:31:43;;;;;;;;;;;;;;;-140.72;100.00;58169.94;5072018;28;19916;-70
2023/10/26 10:34:09;;;;;;;;;;;;;;;-140.72;100.00;58119.13;5076908;28;19939;-70
2023/10/26 10:37:00;;;;;;;;;;;;;;;-140.72;100.00;58106.94;5070177;28;19954;-70
2023/10/26 10:39:26;;;;;;;;;;;;;;;-140.72;100.00;58060.22;5070076;28;20039;-70
2023/10/26 10:41:51;;;;;;;;;;;;;;;-140.72;100.00;58194.31;5070750;28;20434;-70
2023/10/26 10:44:16;;;;;;;;;;;;;;;-140.72;100.00;58198.38;5069814;28;19917;-70
2023/10/26 10:46:46;;;;;;;;;;;;;;;-140.72;100.00;58117.09;5070792;28;19991;-71
2023/10/26 10:49:11;;;;;;;;;;;;;;;-140.72;100.00;57985.03;5070126;28;19937;-70
2023/10/26 10:51:41;;;;;;;;;;;;;;;-140.72;100.00;57773.69;5071954;28;20238;-70
2023/10/26 10:54:10;;;;;;;;;;;;;;;-140.72;100.00;57300.31;5071581;28;20286;-70
2023/10/26 10:56:48;;;;;;;;;;;;;;;-140.72;100.00;57080.91;5071170;28;19966;-70
2023/10/26 10:59:17;;;;;;;;;;;;;;;-140.72;100.00;56699.00;5069641;28;19920;-70
2023/10/26 11:01:43;;;;;;;;;;;;;;;-140.72;100.00;56266.34;5069806;28;19942;-70
2023/10/26 11:04:12;;;;;;;;;;;;;;;-140.72;100.00;55935.28;5070465;28;19916;-70
2023/10/26 11:06:43;;;;;;;;;;;;;;;-140.72;100.00;55748.44;5068885;28;20004;-70
2023/10/26 11:09:19;;;;;;;;;;;;;;;-140.72;100.00;55303.72;5071469;28;19958;-71
2023/10/26 11:11:44;;;;;;;;;;;;;;;-140.72;100.00;55007.25;5073302;28;19916;-70
2023/10/26 11:14:10;;;;;;;;;;;;;;;-140.72;100.00;54924.00;5072312;28;20004;-70
2023/10/26 11:16:36;;;;;;;;;;;;;;;-140.72;100.00;55064.09;5071087;28;19926;-71
2023/10/26 11:19:02;;;;;;;;;;;;;;;-140.72;100.00;55216.41;5071433;28;20042;-70
2023/10/26 11:21:27;;;;;;;;;;;;;;;-140.72;100.00;55212.34;5070689;28;20379;-71
2023/10/26 11:23:52;;;;;;;;;;;;;;;-140.72;100.00;55200.16;5071213;28;19917;-70
2023/10/26 11:26:18;;;;;;;;;;;;;;;-140.72;100.00;55135.19;5071264;28;19921;-70
2023/10/26 11:28:43;;;;;;;;;;;;;;;-140.72;100.00;54984.91;5071405;28;19917;-70
2023/10/26 11:31:08;;;;;;;;;;;;;;;-140.72;100.00;54944.31;5070610;28;19920;-70
2023/10/26 11:33:34;;;;;;;;;;;;;;;-140.72;100.00;54879.34;5071623;28;20332;-70
2023/10/26 11:36:00;;;;;;;;;;;;;;;-140.72;100.00;54785.94;5069976;28;19938;-70
2023/10/26 11:38:26;;;;;;;;;;;;;;;-140.72;100.00;54716.91;5076128;28;20011;-70
2023/10/26 11:40:51;;;;;;;;;;;;;;;-140.72;100.00;54741.28;5067616;28;20362;-70
2023/10/26 11:43:29;;;;;;;;;;;;;;;-140.72;100.00;54800.16;5061728;28;19917;-70
2023/10/26 11:45:54;;;;;;;;;;;;;;;-140.72;100.00;54771.72;5067155;28;20358;-70
2023/10/26 11:48:28;;;;;;;;;;;;;;;-140.72;100.00;54938.22;5070263;28;20359;-70
2023/10/26 11:50:54;;;;;;;;;;;;;;;-140.72;100.00;55017.41;5072182;28;19921;-70
2023/10/26 11:53:22;;;;;;;;;;;;;;;-140.72;100.00;55114.88;5072713;28;19922;-70
2023/10/26 11:55:47;;;;;;;;;;;;;;;-140.72;100.00;55165.63;5072592;28;19920;-70
2023/10/26 11:58:12;;;;;;;;;;;;;;;-140.72;100.00;55135.19;5058680;28;19924;-70
2023/10/26 12:00:38;;;;;;;;;;;;;;;-140.72;100.00;55112.84;5071137;28;20420;-70
2023/10/26 12:03:03;;;;;;;;;;;;;;;-140.72;100.00;55167.66;5070932;28;19970;-70
2023/10/26 12:05:28;;;;;;;;;;;;;;;-140.72;100.00;55366.66;5070660;28;20015;-70
2023/10/26 12:07:54;;;;;;;;;;;;;;;-140.72;100.00;55630.66;5070484;28;20402;-70
2023/10/26 12:10:20;;;;;;;;;;;;;;;-140.72;100.00;55902.78;5069488;28;19926;-70
2023/10/26 12:12:46;;;;;;;;;;;;;;;-140.72;100.00;56057.13;5071781;28;20034;-70